sensor_id;sensor_type;location;lat;lon;timestamp;temperature;humidity
11615;DHT22;5863;52.832;4.758;2023-08-06T00:00:08;15.70;99.90
11615;DHT22;5863;52.832;4.758;2023-08-06T00:02:35;15.80;99.90
11615;DHT22;5863;52.832;4.758;2023-08-06T00:05:01;15.70;99.90
11615;DHT22;5863;52.832;4.758;2023-08-06T00:07:29;15.60;99.90
11615;DHT22;5863;52.832;4.758;2023-08-06T00:09:55;15.60;99.90
11615;DHT22;5863;52.832;4.758;2023-08-06T00:12:23;15.60;99.90
11615;DHT22;5863;52.832;4.758;2023-08-06T00:14:50;15.60;99.90
11615;DHT22;5863;52.832;4.758;2023-08-06T00:17:17;15.60;99.90
11615;DHT22;5863;52.832;4.758;2023-08-06T00:19:44;15.70;99.90
11615;DHT22;5863;52.832;4.758;2023-08-06T00:22:10;15.60;99.90
11615;DHT22;5863;52.832;4.758;2023-08-06T00:24:37;15.60;99.90
11615;DHT22;5863;52.832;4.758;2023-08-06T00:27:04;15.70;99.90
11615;DHT22;5863;52.832;4.758;2023-08-06T00:29:32;15.70;99.90
11615;DHT22;5863;52.832;4.758;2023-08-06T00:31:59;15.70;99.90
11615;DHT22;5863;52.832;4.758;2023-08-06T00:34:26;15.70;99.90
11615;DHT22;5863;52.832;4.758;2023-08-06T00:36:52;15.60;99.90
11615;DHT22;5863;52.832;4.758;2023-08-06T00:39:20;15.70;99.90
11615;DHT22;5863;52.832;4.758;2023-08-06T00:41:47;15.60;99.90
11615;DHT22;5863;52.832;4.758;2023-08-06T00:44:13;15.50;99.90
11615;DHT22;5863;52.832;4.758;2023-08-06T00:46:41;15.50;99.90
11615;DHT22;5863;52.832;4.758;2023-08-06T00:49:08;15.50;99.90
11615;DHT22;5863;52.832;4.758;2023-08-06T00:51:35;15.50;99.90
11615;DHT22;5863;52.832;4.758;2023-08-06T00:54:02;15.50;99.90
11615;DHT22;5863;52.832;4.758;2023-08-06T00:56:29;15.50;99.90
11615;DHT22;5863;52.832;4.758;2023-08-06T00:58:56;15.40;99.90
11615;DHT22;5863;52.832;4.758;2023-08-06T01:01:23;15.40;99.90
11615;DHT22;5863;52.832;4.758;2023-08-06T01:03:51;15.40;99.90
11615;DHT22;5863;52.832;4.758;2023-08-06T01:06:19;15.40;99.90
11615;DHT22;5863;52.832;4.758;2023-08-06T01:08:55;15.40;99.90
11615;DHT22;5863;52.832;4.758;2023-08-06T01:11:30;15.40;99.90
11615;DHT22;5863;52.832;4.758;2023-08-06T01:14:04;15.30;99.90
11615;DHT22;5863;52.832;4.758;2023-08-06T01:16:33;15.30;99.90
11615;DHT22;5863;52.832;4.758;2023-08-06T01:19:01;15.30;99.90
11615;DHT22;5863;52.832;4.758;2023-08-06T01:21:29;15.30;99.90
11615;DHT22;5863;52.832;4.758;2023-08-06T01:23:56;15.20;99.90
11615;DHT22;5863;52.832;4.758;2023-08-06T01:26:27;15.20;99.90
11615;DHT22;5863;52.832;4.758;2023-08-06T01:28:59;15.30;99.90
11615;DHT22;5863;52.832;4.758;2023-08-06T01:31:35;15.30;99.90
11615;DHT22;5863;52.832;4.758;2023-08-06T01:34:04;15.40;99.90
11615;DHT22;5863;52.832;4.758;2023-08-06T01:36:33;15.40;99.90
11615;DHT22;5863;52.832;4.758;2023-08-06T01:39:00;15.30;99.90
11615;DHT22;5863;52.832;4.758;2023-08-06T01:41:27;15.30;99.90
11615;DHT22;5863;52.832;4.758;2023-08-06T01:43:54;15.30;99.90
11615;DHT22;5863;52.832;4.758;2023-08-06T01:46:20;15.30;99.90
11615;DHT22;5863;52.832;4.758;2023-08-06T01:48:47;15.30;99.90
11615;DHT22;5863;52.832;4.758;2023-08-06T01:51:14;15.30;99.90
11615;DHT22;5863;52.832;4.758;2023-08-06T01:53:42;15.30;99.90
11615;DHT22;5863;52.832;4.758;2023-08-06T01:56:08;15.30;99.90
11615;DHT22;5863;52.832;4.758;2023-08-06T01:58:35;15.30;99.90
11615;DHT22;5863;52.832;4.758;2023-08-06T02:01:02;15.40;99.90
11615;DHT22;5863;52.832;4.758;2023-08-06T02:03:28;15.50;99.90
11615;DHT22;5863;52.832;4.758;2023-08-06T02:05:55;15.50;99.90
11615;DHT22;5863;52.832;4.758;2023-08-06T02:08:22;15.50;99.90
11615;DHT22;5863;52.832;4.758;2023-08-06T02:10:50;15.40;99.90
11615;DHT22;5863;52.832;4.758;2023-08-06T02:13:17;15.40;99.90
11615;DHT22;5863;52.832;4.758;2023-08-06T02:15:43;15.50;99.90
11615;DHT22;5863;52.832;4.758;2023-08-06T02:18:11;15.50;99.90
11615;DHT22;5863;52.832;4.758;2023-08-06T02:20:37;15.50;99.90
11615;DHT22;5863;52.832;4.758;2023-08-06T02:23:04;15.50;99.90
11615;DHT22;5863;52.832;4.758;2023-08-06T02:25:31;15.50;99.90
11615;DHT22;5863;52.832;4.758;2023-08-06T02:27:59;15.50;99.90
11615;DHT22;5863;52.832;4.758;2023-08-06T02:30:26;15.60;99.90
11615;DHT22;5863;52.832;4.758;2023-08-06T02:32:52;15.60;99.90
11615;DHT22;5863;52.832;4.758;2023-08-06T02:35:19;15.50;99.90
11615;DHT22;5863;52.832;4.758;2023-08-06T02:37:46;15.50;99.90
11615;DHT22;5863;52.832;4.758;2023-08-06T02:40:12;15.50;99.90
11615;DHT22;5863;52.832;4.758;2023-08-06T02:42:39;15.60;99.90
11615;DHT22;5863;52.832;4.758;2023-08-06T02:45:08;15.60;99.90
11615;DHT22;5863;52.832;4.758;2023-08-06T02:47:35;15.50;99.90
11615;DHT22;5863;52.832;4.758;2023-08-06T02:50:02;15.50;99.90
11615;DHT22;5863;52.832;4.758;2023-08-06T02:52:28;15.50;99.90
11615;DHT22;5863;52.832;4.758;2023-08-06T02:54:55;15.60;99.90
11615;DHT22;5863;52.832;4.758;2023-08-06T02:57:24;15.50;99.90
11615;DHT22;5863;52.832;4.758;2023-08-06T02:59:51;15.50;99.90
11615;DHT22;5863;52.832;4.758;2023-08-06T03:02:19;15.50;99.90
11615;DHT22;5863;52.832;4.758;2023-08-06T03:04:46;15.50;99.90
11615;DHT22;5863;52.832;4.758;2023-08-06T03:07:12;15.40;99.90
11615;DHT22;5863;52.832;4.758;2023-08-06T03:09:39;15.40;99.90
11615;DHT22;5863;52.832;4.758;2023-08-06T03:12:06;15.40;99.90
11615;DHT22;5863;52.832;4.758;2023-08-06T03:14:33;15.40;99.90
11615;DHT22;5863;52.832;4.758;2023-08-06T03:17:00;15.50;99.90
11615;DHT22;5863;52.832;4.758;2023-08-06T03:19:28;15.40;99.90
11615;DHT22;5863;52.832;4.758;2023-08-06T03:21:54;15.40;99.90
11615;DHT22;5863;52.832;4.758;2023-08-06T03:24:21;15.40;99.90
11615;DHT22;5863;52.832;4.758;2023-08-06T03:26:48;15.50;99.90
11615;DHT22;5863;52.832;4.758;2023-08-06T03:29:14;15.40;99.90
11615;DHT22;5863;52.832;4.758;2023-08-06T03:31:41;15.40;99.90
11615;DHT22;5863;52.832;4.758;2023-08-06T03:34:08;15.50;99.90
11615;DHT22;5863;52.832;4.758;2023-08-06T03:36:36;15.50;99.90
11615;DHT22;5863;52.832;4.758;2023-08-06T03:39:02;15.50;99.90
11615;DHT22;5863;52.832;4.758;2023-08-06T03:41:29;15.50;99.90
11615;DHT22;5863;52.832;4.758;2023-08-06T03:43:56;15.40;99.90
11615;DHT22;5863;52.832;4.758;2023-08-06T03:46:22;15.50;99.90
11615;DHT22;5863;52.832;4.758;2023-08-06T03:48:49;15.50;99.90
11615;DHT22;5863;52.832;4.758;2023-08-06T03:51:16;15.50;99.90
11615;DHT22;5863;52.832;4.758;2023-08-06T03:53:44;15.50;99.90
11615;DHT22;5863;52.832;4.758;2023-08-06T03:56:10;15.50;99.90
11615;DHT22;5863;52.832;4.758;2023-08-06T03:58:37;15.50;99.90
11615;DHT22;5863;52.832;4.758;2023-08-06T04:01:03;15.50;99.90
11615;DHT22;5863;52.832;4.758;2023-08-06T04:03:30;15.50;99.90
11615;DHT22;5863;52.832;4.758;2023-08-06T04:05:57;15.50;99.90
11615;DHT22;5863;52.832;4.758;2023-08-06T04:08:25;15.50;99.90
11615;DHT22;5863;52.832;4.758;2023-08-06T04:10:53;15.50;99.90
11615;DHT22;5863;52.832;4.758;2023-08-06T04:13:19;15.50;99.90
11615;DHT22;5863;52.832;4.758;2023-08-06T04:15:46;15.60;99.90
11615;DHT22;5863;52.832;4.758;2023-08-06T04:18:13;15.60;99.90
11615;DHT22;5863;52.832;4.758;2023-08-06T04:20:42;15.60;99.90
11615;DHT22;5863;52.832;4.758;2023-08-06T04:23:10;15.60;99.90
11615;DHT22;5863;52.832;4.758;2023-08-06T04:25:36;15.60;99.90
11615;DHT22;5863;52.832;4.758;2023-08-06T04:28:05;15.60;99.90
11615;DHT22;5863;52.832;4.758;2023-08-06T04:30:31;15.60;99.90
11615;DHT22;5863;52.832;4.758;2023-08-06T04:32:58;15.60;99.90
11615;DHT22;5863;52.832;4.758;2023-08-06T04:35:24;15.60;99.90
11615;DHT22;5863;52.832;4.758;2023-08-06T04:37:51;15.60;99.90
11615;DHT22;5863;52.832;4.758;2023-08-06T04:40:18;15.70;99.90
11615;DHT22;5863;52.832;4.758;2023-08-06T04:42:45;15.60;99.90
11615;DHT22;5863;52.832;4.758;2023-08-06T04:45:13;15.60;99.90
11615;DHT22;5863;52.832;4.758;2023-08-06T04:47:39;15.60;99.90
11615;DHT22;5863;52.832;4.758;2023-08-06T04:50:06;15.60;99.90
11615;DHT22;5863;52.832;4.758;2023-08-06T04:52:33;15.60;99.90
11615;DHT22;5863;52.832;4.758;2023-08-06T04:55:00;15.60;99.90
11615;DHT22;5863;52.832;4.758;2023-08-06T04:57:26;15.60;99.90
11615;DHT22;5863;52.832;4.758;2023-08-06T04:59:53;15.60;99.90
11615;DHT22;5863;52.832;4.758;2023-08-06T05:02:21;15.60;99.90
11615;DHT22;5863;52.832;4.758;2023-08-06T05:04:48;15.60;99.90
11615;DHT22;5863;52.832;4.758;2023-08-06T05:07:14;15.60;99.90
11615;DHT22;5863;52.832;4.758;2023-08-06T05:09:41;15.60;99.90
11615;DHT22;5863;52.832;4.758;2023-08-06T05:12:08;15.70;99.90
11615;DHT22;5863;52.832;4.758;2023-08-06T05:14:35;15.60;99.90
11615;DHT22;5863;52.832;4.758;2023-08-06T05:17:02;15.70;99.90
11615;DHT22;5863;52.832;4.758;2023-08-06T05:19:31;15.70;99.90
11615;DHT22;5863;52.832;4.758;2023-08-06T05:21:58;15.70;99.90
11615;DHT22;5863;52.832;4.758;2023-08-06T05:24:24;15.70;99.90
11615;DHT22;5863;52.832;4.758;2023-08-06T05:26:51;15.70;99.90
11615;DHT22;5863;52.832;4.758;2023-08-06T05:29:18;15.70;99.90
11615;DHT22;5863;52.832;4.758;2023-08-06T05:31:44;15.70;99.90
11615;DHT22;5863;52.832;4.758;2023-08-06T05:34:11;15.70;99.90
11615;DHT22;5863;52.832;4.758;2023-08-06T05:36:39;15.60;99.90
11615;DHT22;5863;52.832;4.758;2023-08-06T05:39:06;15.70;99.90
11615;DHT22;5863;52.832;4.758;2023-08-06T05:41:32;15.70;99.90
11615;DHT22;5863;52.832;4.758;2023-08-06T05:43:59;15.70;99.90
11615;DHT22;5863;52.832;4.758;2023-08-06T05:46:26;15.70;99.90
11615;DHT22;5863;52.832;4.758;2023-08-06T05:48:52;15.70;99.90
11615;DHT22;5863;52.832;4.758;2023-08-06T05:51:19;15.80;99.90
11615;DHT22;5863;52.832;4.758;2023-08-06T05:53:47;15.80;99.90
11615;DHT22;5863;52.832;4.758;2023-08-06T05:56:15;15.80;99.90
11615;DHT22;5863;52.832;4.758;2023-08-06T05:58:42;15.80;99.90
11615;DHT22;5863;52.832;4.758;2023-08-06T06:01:09;15.90;99.90
11615;DHT22;5863;52.832;4.758;2023-08-06T06:03:35;15.90;99.90
11615;DHT22;5863;52.832;4.758;2023-08-06T06:06:02;15.80;99.90
11615;DHT22;5863;52.832;4.758;2023-08-06T06:08:29;15.90;99.90
11615;DHT22;5863;52.832;4.758;2023-08-06T06:10:57;15.90;99.90
11615;DHT22;5863;52.832;4.758;2023-08-06T06:13:24;15.90;99.90
11615;DHT22;5863;52.832;4.758;2023-08-06T06:15:54;15.90;99.90
11615;DHT22;5863;52.832;4.758;2023-08-06T06:18:20;15.90;99.90
11615;DHT22;5863;52.832;4.758;2023-08-06T06:20:47;15.90;99.90
11615;DHT22;5863;52.832;4.758;2023-08-06T06:23:14;15.90;99.90
11615;DHT22;5863;52.832;4.758;2023-08-06T06:25:42;16.00;99.90
11615;DHT22;5863;52.832;4.758;2023-08-06T06:28:10;15.90;99.90
11615;DHT22;5863;52.832;4.758;2023-08-06T06:30:37;15.90;99.90
11615;DHT22;5863;52.832;4.758;2023-08-06T06:33:03;16.00;99.90
11615;DHT22;5863;52.832;4.758;2023-08-06T06:35:30;16.00;99.90
11615;DHT22;5863;52.832;4.758;2023-08-06T06:37:57;16.00;99.90
11615;DHT22;5863;52.832;4.758;2023-08-06T06:40:23;16.00;99.90
11615;DHT22;5863;52.832;4.758;2023-08-06T06:42:50;16.00;99.90
11615;DHT22;5863;52.832;4.758;2023-08-06T06:45:18;16.00;99.90
11615;DHT22;5863;52.832;4.758;2023-08-06T06:47:44;16.10;99.90
11615;DHT22;5863;52.832;4.758;2023-08-06T06:50:11;16.10;99.90
11615;DHT22;5863;52.832;4.758;2023-08-06T06:52:38;16.10;99.90
11615;DHT22;5863;52.832;4.758;2023-08-06T06:55:05;16.20;99.90
11615;DHT22;5863;52.832;4.758;2023-08-06T06:57:32;16.10;99.90
11615;DHT22;5863;52.832;4.758;2023-08-06T06:59:59;16.10;99.90
11615;DHT22;5863;52.832;4.758;2023-08-06T07:02:27;16.10;99.90
11615;DHT22;5863;52.832;4.758;2023-08-06T07:04:53;16.10;99.90
11615;DHT22;5863;52.832;4.758;2023-08-06T07:07:20;16.10;99.90
11615;DHT22;5863;52.832;4.758;2023-08-06T07:09:46;16.10;99.90
11615;DHT22;5863;52.832;4.758;2023-08-06T07:12:13;16.10;99.90
11615;DHT22;5863;52.832;4.758;2023-08-06T07:14:40;16.10;99.90
11615;DHT22;5863;52.832;4.758;2023-08-06T07:17:06;16.10;99.90
11615;DHT22;5863;52.832;4.758;2023-08-06T07:19:34;16.10;99.90
11615;DHT22;5863;52.832;4.758;2023-08-06T07:22:01;16.10;99.90
11615;DHT22;5863;52.832;4.758;2023-08-06T07:24:28;16.20;99.90
11615;DHT22;5863;52.832;4.758;2023-08-06T07:26:54;16.20;99.90
11615;DHT22;5863;52.832;4.758;2023-08-06T07:29:21;16.20;99.90
11615;DHT22;5863;52.832;4.758;2023-08-06T07:31:48;16.10;99.90
11615;DHT22;5863;52.832;4.758;2023-08-06T07:34:15;16.30;99.90
11615;DHT22;5863;52.832;4.758;2023-08-06T07:36:45;16.30;99.90
11615;DHT22;5863;52.832;4.758;2023-08-06T07:39:12;16.40;99.90
11615;DHT22;5863;52.832;4.758;2023-08-06T07:41:39;16.40;99.90
11615;DHT22;5863;52.832;4.758;2023-08-06T07:44:06;16.40;99.90
11615;DHT22;5863;52.832;4.758;2023-08-06T07:46:33;16.40;99.90
11615;DHT22;5863;52.832;4.758;2023-08-06T07:49:00;16.50;99.90
11615;DHT22;5863;52.832;4.758;2023-08-06T07:51:26;16.50;99.90
11615;DHT22;5863;52.832;4.758;2023-08-06T07:53:54;16.50;99.90
11615;DHT22;5863;52.832;4.758;2023-08-06T07:56:21;16.50;99.90
11615;DHT22;5863;52.832;4.758;2023-08-06T07:58:48;16.50;99.90
11615;DHT22;5863;52.832;4.758;2023-08-06T08:01:14;16.50;99.90
11615;DHT22;5863;52.832;4.758;2023-08-06T08:03:41;16.50;99.90
11615;DHT22;5863;52.832;4.758;2023-08-06T08:06:08;16.50;99.90
11615;DHT22;5863;52.832;4.758;2023-08-06T08:08:34;16.50;99.90
11615;DHT22;5863;52.832;4.758;2023-08-06T08:11:05;16.50;99.90
11615;DHT22;5863;52.832;4.758;2023-08-06T08:13:32;16.60;99.90
11615;DHT22;5863;52.832;4.758;2023-08-06T08:16:00;16.50;99.90
11615;DHT22;5863;52.832;4.758;2023-08-06T08:18:27;16.50;99.90
11615;DHT22;5863;52.832;4.758;2023-08-06T08:20:53;16.50;99.90
11615;DHT22;5863;52.832;4.758;2023-08-06T08:23:20;16.50;99.90
11615;DHT22;5863;52.832;4.758;2023-08-06T08:25:47;16.50;99.90
11615;DHT22;5863;52.832;4.758;2023-08-06T08:28:15;16.50;99.90
11615;DHT22;5863;52.832;4.758;2023-08-06T08:30:41;16.50;99.90
11615;DHT22;5863;52.832;4.758;2023-08-06T08:33:08;16.60;99.90
11615;DHT22;5863;52.832;4.758;2023-08-06T08:35:36;16.60;99.90
11615;DHT22;5863;52.832;4.758;2023-08-06T08:38:03;16.70;99.90
11615;DHT22;5863;52.832;4.758;2023-08-06T08:40:32;16.80;99.90
11615;DHT22;5863;52.832;4.758;2023-08-06T08:42:59;16.70;99.90
11615;DHT22;5863;52.832;4.758;2023-08-06T08:45:29;16.70;99.90
11615;DHT22;5863;52.832;4.758;2023-08-06T08:47:56;16.70;99.90
11615;DHT22;5863;52.832;4.758;2023-08-06T08:50:23;16.80;99.90
11615;DHT22;5863;52.832;4.758;2023-08-06T08:52:50;16.80;99.90
11615;DHT22;5863;52.832;4.758;2023-08-06T08:55:17;16.90;99.90
11615;DHT22;5863;52.832;4.758;2023-08-06T08:57:46;17.00;99.90
11615;DHT22;5863;52.832;4.758;2023-08-06T09:00:13;17.00;99.90
11615;DHT22;5863;52.832;4.758;2023-08-06T09:02:42;17.20;99.90
11615;DHT22;5863;52.832;4.758;2023-08-06T09:05:11;17.20;99.90
11615;DHT22;5863;52.832;4.758;2023-08-06T09:07:43;17.30;99.90
11615;DHT22;5863;52.832;4.758;2023-08-06T09:10:14;17.40;99.90
11615;DHT22;5863;52.832;4.758;2023-08-06T09:12:43;17.40;99.90
11615;DHT22;5863;52.832;4.758;2023-08-06T09:15:11;17.50;99.90
11615;DHT22;5863;52.832;4.758;2023-08-06T09:17:38;17.50;99.90
11615;DHT22;5863;52.832;4.758;2023-08-06T09:20:11;17.60;99.90
11615;DHT22;5863;52.832;4.758;2023-08-06T09:22:38;17.60;99.90
11615;DHT22;5863;52.832;4.758;2023-08-06T09:25:07;17.60;99.90
11615;DHT22;5863;52.832;4.758;2023-08-06T09:27:35;17.70;99.90
11615;DHT22;5863;52.832;4.758;2023-08-06T09:30:03;17.70;99.90
11615;DHT22;5863;52.832;4.758;2023-08-06T09:32:45;17.80;99.90
11615;DHT22;5863;52.832;4.758;2023-08-06T09:35:17;17.80;99.90
11615;DHT22;5863;52.832;4.758;2023-08-06T09:37:43;17.90;99.90
11615;DHT22;5863;52.832;4.758;2023-08-06T09:40:27;18.00;99.90
11615;DHT22;5863;52.832;4.758;2023-08-06T09:42:53;18.10;99.90
11615;DHT22;5863;52.832;4.758;2023-08-06T09:45:20;18.20;99.90
11615;DHT22;5863;52.832;4.758;2023-08-06T09:47:48;18.20;99.90
11615;DHT22;5863;52.832;4.758;2023-08-06T09:50:17;18.30;99.90
11615;DHT22;5863;52.832;4.758;2023-08-06T09:52:44;18.30;99.90
11615;DHT22;5863;52.832;4.758;2023-08-06T09:55:12;18.50;99.90
11615;DHT22;5863;52.832;4.758;2023-08-06T09:57:39;18.50;99.90
11615;DHT22;5863;52.832;4.758;2023-08-06T10:00:07;18.70;99.90
11615;DHT22;5863;52.832;4.758;2023-08-06T10:02:36;18.70;99.90
11615;DHT22;5863;52.832;4.758;2023-08-06T10:05:04;18.70;99.90
11615;DHT22;5863;52.832;4.758;2023-08-06T10:07:33;18.70;99.90
11615;DHT22;5863;52.832;4.758;2023-08-06T10:10:00;18.80;99.90
11615;DHT22;5863;52.832;4.758;2023-08-06T10:12:31;18.80;99.90
11615;DHT22;5863;52.832;4.758;2023-08-06T10:15:01;18.80;99.90
11615;DHT22;5863;52.832;4.758;2023-08-06T10:17:31;18.80;99.90
11615;DHT22;5863;52.832;4.758;2023-08-06T10:19:59;18.80;99.90
11615;DHT22;5863;52.832;4.758;2023-08-06T10:22:26;18.80;99.90
11615;DHT22;5863;52.832;4.758;2023-08-06T10:24:56;18.80;99.90
11615;DHT22;5863;52.832;4.758;2023-08-06T10:27:28;18.70;99.90
11615;DHT22;5863;52.832;4.758;2023-08-06T10:29:55;18.60;99.90
11615;DHT22;5863;52.832;4.758;2023-08-06T10:32:48;18.50;99.90
11615;DHT22;5863;52.832;4.758;2023-08-06T10:35:31;18.30;99.90
11615;DHT22;5863;52.832;4.758;2023-08-06T10:37:59;18.20;99.90
11615;DHT22;5863;52.832;4.758;2023-08-06T10:40:27;18.20;99.90
11615;DHT22;5863;52.832;4.758;2023-08-06T10:42:55;18.10;99.90
11615;DHT22;5863;52.832;4.758;2023-08-06T10:45:22;18.00;99.90
11615;DHT22;5863;52.832;4.758;2023-08-06T10:47:53;17.90;99.90
11615;DHT22;5863;52.832;4.758;2023-08-06T10:50:21;17.90;99.90
11615;DHT22;5863;52.832;4.758;2023-08-06T10:52:48;17.90;99.90
11615;DHT22;5863;52.832;4.758;2023-08-06T10:55:23;17.80;99.90
11615;DHT22;5863;52.832;4.758;2023-08-06T10:57:52;17.80;99.90
11615;DHT22;5863;52.832;4.758;2023-08-06T11:00:20;17.80;99.90
11615;DHT22;5863;52.832;4.758;2023-08-06T11:02:48;17.80;99.90
11615;DHT22;5863;52.832;4.758;2023-08-06T11:05:15;17.80;99.90
11615;DHT22;5863;52.832;4.758;2023-08-06T11:07:41;17.90;99.90
11615;DHT22;5863;52.832;4.758;2023-08-06T11:10:10;17.90;99.90
11615;DHT22;5863;52.832;4.758;2023-08-06T11:12:37;17.90;99.90
11615;DHT22;5863;52.832;4.758;2023-08-06T11:15:06;17.80;99.90
11615;DHT22;5863;52.832;4.758;2023-08-06T11:17:34;17.80;99.90
11615;DHT22;5863;52.832;4.758;2023-08-06T11:20:02;17.80;99.90
11615;DHT22;5863;52.832;4.758;2023-08-06T11:22:29;17.80;99.90
11615;DHT22;5863;52.832;4.758;2023-08-06T11:24:56;17.70;99.90
11615;DHT22;5863;52.832;4.758;2023-08-06T11:27:23;17.80;99.90
11615;DHT22;5863;52.832;4.758;2023-08-06T11:29:49;17.80;99.90
11615;DHT22;5863;52.832;4.758;2023-08-06T11:32:17;17.70;99.90
11615;DHT22;5863;52.832;4.758;2023-08-06T11:34:47;17.70;99.90
11615;DHT22;5863;52.832;4.758;2023-08-06T11:37:13;17.70;99.90
11615;DHT22;5863;52.832;4.758;2023-08-06T11:39:46;17.60;99.90
11615;DHT22;5863;52.832;4.758;2023-08-06T11:42:14;17.60;99.90
11615;DHT22;5863;52.832;4.758;2023-08-06T11:44:41;17.60;99.90
11615;DHT22;5863;52.832;4.758;2023-08-06T11:47:13;17.60;99.90
11615;DHT22;5863;52.832;4.758;2023-08-06T11:49:43;17.60;99.90
11615;DHT22;5863;52.832;4.758;2023-08-06T11:52:13;17.60;99.90
11615;DHT22;5863;52.832;4.758;2023-08-06T11:54:40;17.60;99.90
11615;DHT22;5863;52.832;4.758;2023-08-06T11:57:07;17.70;99.90
11615;DHT22;5863;52.832;4.758;2023-08-06T11:59:34;17.80;99.90
11615;DHT22;5863;52.832;4.758;2023-08-06T12:02:02;17.80;99.90
11615;DHT22;5863;52.832;4.758;2023-08-06T12:04:31;17.80;99.90
11615;DHT22;5863;52.832;4.758;2023-08-06T12:07:06;17.90;99.90
11615;DHT22;5863;52.832;4.758;2023-08-06T12:09:34;18.00;99.90
11615;DHT22;5863;52.832;4.758;2023-08-06T12:12:01;18.00;99.90
11615;DHT22;5863;52.832;4.758;2023-08-06T12:14:29;18.00;99.90
11615;DHT22;5863;52.832;4.758;2023-08-06T12:16:55;18.00;99.90
11615;DHT22;5863;52.832;4.758;2023-08-06T12:19:22;17.90;99.90
11615;DHT22;5863;52.832;4.758;2023-08-06T12:21:49;17.90;99.90
11615;DHT22;5863;52.832;4.758;2023-08-06T12:24:17;18.00;99.90
11615;DHT22;5863;52.832;4.758;2023-08-06T12:26:43;18.00;99.90
11615;DHT22;5863;52.832;4.758;2023-08-06T12:29:10;18.00;99.90
11615;DHT22;5863;52.832;4.758;2023-08-06T12:31:37;18.10;99.90
11615;DHT22;5863;52.832;4.758;2023-08-06T12:34:04;18.10;99.90
11615;DHT22;5863;52.832;4.758;2023-08-06T12:36:30;18.20;99.90
11615;DHT22;5863;52.832;4.758;2023-08-06T12:38:57;18.10;99.90
11615;DHT22;5863;52.832;4.758;2023-08-06T12:41:25;18.20;99.90
11615;DHT22;5863;52.832;4.758;2023-08-06T12:43:52;18.20;99.90
11615;DHT22;5863;52.832;4.758;2023-08-06T12:46:19;18.20;99.90
11615;DHT22;5863;52.832;4.758;2023-08-06T12:48:45;18.20;99.90
11615;DHT22;5863;52.832;4.758;2023-08-06T12:51:14;18.30;99.90
11615;DHT22;5863;52.832;4.758;2023-08-06T12:53:40;18.40;99.90
11615;DHT22;5863;52.832;4.758;2023-08-06T12:56:07;18.30;99.90
11615;DHT22;5863;52.832;4.758;2023-08-06T12:58:35;18.30;99.90
11615;DHT22;5863;52.832;4.758;2023-08-06T13:01:01;18.30;99.90
11615;DHT22;5863;52.832;4.758;2023-08-06T13:03:28;18.30;99.90
11615;DHT22;5863;52.832;4.758;2023-08-06T13:05:55;18.40;99.90
11615;DHT22;5863;52.832;4.758;2023-08-06T13:08:23;18.40;99.90
11615;DHT22;5863;52.832;4.758;2023-08-06T13:10:49;18.50;99.90
11615;DHT22;5863;52.832;4.758;2023-08-06T13:13:16;18.50;99.90
11615;DHT22;5863;52.832;4.758;2023-08-06T13:15:44;18.60;99.90
11615;DHT22;5863;52.832;4.758;2023-08-06T13:18:11;18.70;99.90
11615;DHT22;5863;52.832;4.758;2023-08-06T13:20:38;18.70;99.90
11615;DHT22;5863;52.832;4.758;2023-08-06T13:23:06;18.60;99.90
11615;DHT22;5863;52.832;4.758;2023-08-06T13:25:33;18.60;99.90
11615;DHT22;5863;52.832;4.758;2023-08-06T13:28:02;18.50;99.90
11615;DHT22;5863;52.832;4.758;2023-08-06T13:30:28;18.50;99.90
11615;DHT22;5863;52.832;4.758;2023-08-06T13:32:57;18.50;99.90
11615;DHT22;5863;52.832;4.758;2023-08-06T13:35:23;18.50;99.90
11615;DHT22;5863;52.832;4.758;2023-08-06T13:37:50;18.40;99.90
11615;DHT22;5863;52.832;4.758;2023-08-06T13:40:17;18.40;99.90
11615;DHT22;5863;52.832;4.758;2023-08-06T13:42:43;18.30;99.90
11615;DHT22;5863;52.832;4.758;2023-08-06T13:45:10;18.30;99.90
11615;DHT22;5863;52.832;4.758;2023-08-06T13:47:37;18.20;99.90
11615;DHT22;5863;52.832;4.758;2023-08-06T13:50:05;18.10;99.90
11615;DHT22;5863;52.832;4.758;2023-08-06T13:52:32;18.00;99.90
11615;DHT22;5863;52.832;4.758;2023-08-06T13:55:00;18.00;99.90
11615;DHT22;5863;52.832;4.758;2023-08-06T13:57:29;17.80;99.90
11615;DHT22;5863;52.832;4.758;2023-08-06T13:59:55;17.80;99.90
11615;DHT22;5863;52.832;4.758;2023-08-06T14:02:22;17.70;99.90
11615;DHT22;5863;52.832;4.758;2023-08-06T14:04:49;17.60;99.90
11615;DHT22;5863;52.832;4.758;2023-08-06T14:07:17;17.60;99.90
11615;DHT22;5863;52.832;4.758;2023-08-06T14:09:44;17.60;99.90
11615;DHT22;5863;52.832;4.758;2023-08-06T14:12:12;17.60;99.90
11615;DHT22;5863;52.832;4.758;2023-08-06T14:14:39;17.40;99.90
11615;DHT22;5863;52.832;4.758;2023-08-06T14:17:06;17.50;99.90
11615;DHT22;5863;52.832;4.758;2023-08-06T14:19:32;17.40;99.90
11615;DHT22;5863;52.832;4.758;2023-08-06T14:21:59;17.40;99.90
11615;DHT22;5863;52.832;4.758;2023-08-06T14:24:27;17.40;99.90
11615;DHT22;5863;52.832;4.758;2023-08-06T14:26:54;17.40;99.90
11615;DHT22;5863;52.832;4.758;2023-08-06T14:29:20;17.40;99.90
11615;DHT22;5863;52.832;4.758;2023-08-06T14:31:47;17.40;99.90
11615;DHT22;5863;52.832;4.758;2023-08-06T14:34:14;17.40;99.90
11615;DHT22;5863;52.832;4.758;2023-08-06T14:36:40;17.40;99.90
11615;DHT22;5863;52.832;4.758;2023-08-06T14:39:07;17.40;99.90
11615;DHT22;5863;52.832;4.758;2023-08-06T14:41:35;17.40;99.90
11615;DHT22;5863;52.832;4.758;2023-08-06T14:44:02;17.30;99.90
11615;DHT22;5863;52.832;4.758;2023-08-06T14:46:28;17.40;99.90
11615;DHT22;5863;52.832;4.758;2023-08-06T14:48:55;17.30;99.90
11615;DHT22;5863;52.832;4.758;2023-08-06T14:51:22;17.30;99.90
11615;DHT22;5863;52.832;4.758;2023-08-06T14:53:48;17.30;99.90
11615;DHT22;5863;52.832;4.758;2023-08-06T14:56:15;17.20;99.90
11615;DHT22;5863;52.832;4.758;2023-08-06T14:58:43;17.20;99.90
11615;DHT22;5863;52.832;4.758;2023-08-06T15:01:10;17.20;99.90
11615;DHT22;5863;52.832;4.758;2023-08-06T15:03:36;17.20;99.90
11615;DHT22;5863;52.832;4.758;2023-08-06T15:06:03;17.20;99.90
11615;DHT22;5863;52.832;4.758;2023-08-06T15:08:30;17.10;99.90
11615;DHT22;5863;52.832;4.758;2023-08-06T15:10:56;17.10;99.90
11615;DHT22;5863;52.832;4.758;2023-08-06T15:13:23;17.10;99.90
11615;DHT22;5863;52.832;4.758;2023-08-06T15:15:51;17.10;99.90
11615;DHT22;5863;52.832;4.758;2023-08-06T15:18:18;17.10;99.90
11615;DHT22;5863;52.832;4.758;2023-08-06T15:20:45;17.10;99.90
11615;DHT22;5863;52.832;4.758;2023-08-06T15:23:12;17.00;99.90
11615;DHT22;5863;52.832;4.758;2023-08-06T15:25:38;17.10;99.90
11615;DHT22;5863;52.832;4.758;2023-08-06T15:28:05;17.10;99.90
11615;DHT22;5863;52.832;4.758;2023-08-06T15:30:32;17.10;99.90
11615;DHT22;5863;52.832;4.758;2023-08-06T15:33:01;17.10;99.90
11615;DHT22;5863;52.832;4.758;2023-08-06T15:35:28;17.10;99.90
11615;DHT22;5863;52.832;4.758;2023-08-06T15:37:55;17.10;99.90
11615;DHT22;5863;52.832;4.758;2023-08-06T15:40:21;17.10;99.90
11615;DHT22;5863;52.832;4.758;2023-08-06T15:42:49;17.20;99.90
11615;DHT22;5863;52.832;4.758;2023-08-06T15:45:15;17.10;99.90